Airfield :







YOU CAN JOIN US ON...

 
LOGIN :

Register | Disclaimer

   EN    FR    IT 

 









Legend :    VFR   Marginal VFR   IFR   Intensive IFR   Very Intensive IFR
Visi :
Ceiling :
>= 8 km
>= 3000ft
5 to 8 km
1000 to 3000 ft
1500m to 5 km
500 to 1000 ft
800 to 1500m
200 to 500 ft
< 800m
< 200 ft
Symbols :   Thunderstorms  Fog  Heavy snow  Heavy precipitations  Wind > 20 kt






- Airport Elevation : 41 ft
- IATA code : GND


TGPY - Point Salines

CURRENT METAR :
  • 202200Z 08012KT 9999 FEW014CB 29/25 Q1013 NOSIG RMK CB-SSW

EXPIRED METARs :
  • 202100Z 08011KT 9999 FEW014CB 30/25 Q1013 NOSIG RMK CB-SSW
  • 202000Z 08014KT 9999 FEW018 SCT036 30/26 Q1013 NOSIG
  • 201900Z 00000KT 9999 VCSH FEW014CB BKN017 BKN035 28/27 Q1014 RESHRA NOSIG RMK CB-SE/ VCSH-SE-SW
  • 201800Z 09008KT 9000 -SHRA FEW014CB BKN017 BKN035 28/27 Q1014 NOSIG RMK CB-SW, VCSH-NE-W

TAF COR TAF TGPY
Valid from the 20 at 18:00 until the 21 at 18:00 UTC


201600Z 2018/2118 08013KT 9999 SCT018
TTZP FIR / North America



MET'MAP, your aeronautical weather chart ! - Copyright ORBIFLY December 2007 - Disclaimer

ORBIFLY MET'MAP TEAM :

Programming & Development : Alexandra Zaïnal
Original concept : Baudouin d'Aumeries
Technical & hardware support : Manuel Goepfert
Assistance : Marc-Olivier Méhu




SOURCES & CREDITS :

   NOAA